Time;durP1;ratioP1;P1;durP2;ratioP2;P2;SDS_P1;SDS_P2;PMS_P1;PMS_P2;Temp;Humidity;BMP_temperature;BMP_pressure;BME280_temperature;BME280_humidity;BME280_pressure;Samples;Min_cycle;Max_cycle;Signal;HPM_P1;HPM_P2
2023/09/09 00:02:06;;;;;;;1.50;1.23;;;22.10;63.50;;;;;;6245844;28;20044;-67
2023/09/09 00:05:07;;;;;;;1.77;1.30;;;22.10;63.50;;;;;;6223297;28;20061;-68
2023/09/09 00:08:08;;;;;;;1.42;1.20;;;22.10;63.50;;;;;;6225155;28;20424;-68
2023/09/09 00:11:09;;;;;;;1.42;1.17;;;22.10;63.50;;;;;;6247624;28;20029;-67
2023/09/09 00:14:09;;;;;;;1.50;1.10;;;22.10;63.50;;;;;;6228392;28;20145;-67
2023/09/09 00:17:10;;;;;;;2.08;1.45;;;22.10;63.50;;;;;;6222429;28;20026;-67
2023/09/09 00:20:14;;;;;;;2.05;1.40;;;22.10;63.50;;;;;;6240562;28;20045;-68
2023/09/09 00:23:14;;;;;;;1.95;1.30;;;22.10;63.50;;;;;;6244047;28;20044;-67
2023/09/09 00:26:15;;;;;;;2.53;1.40;;;22.10;63.50;;;;;;6222597;28;20022;-67
2023/09/09 00:29:16;;;;;;;1.20;1.10;;;22.10;64.40;;;;;;6231080;28;20021;-67
2023/09/09 00:32:16;;;;;;;1.52;1.30;;;22.10;63.50;;;;;;6246604;28;20038;-68
2023/09/09 00:35:17;;;;;;;1.33;1.20;;;22.00;63.70;;;;;;6227227;28;20021;-68
2023/09/09 00:38:17;;;;;;;1.65;1.08;;;22.10;63.50;;;;;;6221710;28;20034;-67
2023/09/09 00:41:20;;;;;;;1.73;1.30;;;22.10;63.50;;;;;;6222162;28;20025;-67
2023/09/09 00:44:21;;;;;;;1.42;1.33;;;22.10;63.50;;;;;;6229476;28;20040;-67
2023/09/09 00:47:22;;;;;;;1.90;1.50;;;22.10;63.50;;;;;;6246514;28;20488;-68
2023/09/09 00:50:23;;;;;;;2.00;1.48;;;22.10;63.60;;;;;;6229152;28;20040;-68
2023/09/09 00:53:25;;;;;;;1.40;1.10;;;22.00;63.50;;;;;;6197612;28;20433;-68
2023/09/09 00:56:27;;;;;;;1.75;1.40;;;22.00;63.50;;;;;;6222698;28;20033;-67
2023/09/09 00:59:27;;;;;;;1.65;1.50;;;22.10;63.60;;;;;;6223475;28;20040;-67
2023/09/09 01:02:28;;;;;;;1.92;1.42;;;22.10;63.60;;;;;;6237749;28;20057;-68
2023/09/09 01:05:29;;;;;;;2.13;1.48;;;22.10;63.60;;;;;;6231629;28;20377;-67
2023/09/09 01:08:30;;;;;;;1.60;1.40;;;22.10;63.60;;;;;;6220788;28;20028;-67
2023/09/09 01:11:31;;;;;;;2.10;1.55;;;22.10;63.70;;;;;;6222118;28;20033;-67
2023/09/09 01:14:31;;;;;;;2.00;1.60;;;22.10;63.70;;;;;;6220816;28;20050;-67
2023/09/09 01:17:34;;;;;;;1.30;1.10;;;22.10;63.70;;;;;;6221364;28;20110;-68
2023/09/09 01:20:39;;;;;;;1.70;1.40;;;22.10;63.70;;;;;;6234160;28;20091;-67
2023/09/09 01:23:39;;;;;;;1.53;1.43;;;22.10;63.70;;;;;;6245657;28;20494;-67
2023/09/09 01:26:41;;;;;;;2.00;1.42;;;22.10;63.70;;;;;;6224386;28;20277;-68
2023/09/09 01:29:41;;;;;;;1.52;1.30;;;22.10;63.70;;;;;;6225078;28;20052;-67
2023/09/09 01:32:42;;;;;;;1.58;1.27;;;22.10;63.70;;;;;;6222754;28;20054;-67
2023/09/09 01:35:43;;;;;;;1.60;1.30;;;22.10;63.70;;;;;;6220456;28;20076;-68
2023/09/09 01:38:43;;;;;;;1.60;1.40;;;22.10;63.70;;;;;;6220961;28;20127;-67
2023/09/09 01:41:44;;;;;;;2.28;1.83;;;22.10;63.70;;;;;;6225169;28;20030;-67
2023/09/09 01:44:46;;;;;;;2.38;1.75;;;22.10;63.70;;;;;;6220791;28;20046;-67
2023/09/09 01:47:46;;;;;;;1.30;1.20;;;22.10;63.70;;;;;;6220152;28;20026;-67
2023/09/09 01:50:47;;;;;;;1.40;1.20;;;22.10;63.70;;;;;;6223805;28;20030;-67
2023/09/09 01:53:48;;;;;;;1.83;1.40;;;22.10;63.70;;;;;;6220539;28;20037;-66
2023/09/09 01:56:48;;;;;;;2.05;1.60;;;22.10;63.70;;;;;;6223050;28;20022;-67
2023/09/09 01:59:49;;;;;;;1.50;1.40;;;22.10;63.70;;;;;;6221721;28;20077;-67
2023/09/09 02:02:49;;;;;;;1.85;1.42;;;22.10;63.80;;;;;;6220835;28;20034;-67
2023/09/09 02:05:50;;;;;;;3.03;1.50;;;22.10;63.80;;;;;;6220587;28;20026;-67
2023/09/09 02:08:50;;;;;;;1.42;1.13;;;22.10;63.70;;;;;;6220223;28;20400;-68
2023/09/09 02:11:51;;;;;;;1.58;1.45;;;22.10;63.80;;;;;;6228782;28;20034;-67
2023/09/09 02:14:52;;;;;;;2.47;1.90;;;22.10;63.70;;;;;;6219654;28;20512;-67
2023/09/09 02:17:52;;;;;;;1.50;1.35;;;22.10;63.70;;;;;;6219430;28;20029;-67
2023/09/09 02:20:57;;;;;;;1.50;1.40;;;22.10;63.70;;;;;;6227480;28;20509;-67
2023/09/09 02:23:58;;;;;;;;;;;22.10;63.80;;;;;;6227825;28;20026;-67
2023/09/09 02:26:59;;;;;;;2.67;1.63;;;22.10;63.80;;;;;;6219638;28;20308;-67
2023/09/09 02:30:00;;;;;;;1.52;1.42;;;22.10;63.80;;;;;;6220151;28;20037;-67
2023/09/09 02:33:01;;;;;;;1.65;1.45;;;22.10;63.80;;;;;;6233791;28;20022;-67
2023/09/09 02:36:02;;;;;;;1.95;1.65;;;22.00;63.70;;;;;;6219201;28;20140;-67
2023/09/09 02:39:02;;;;;;;1.70;1.40;;;22.10;63.80;;;;;;6219782;28;20037;-67
2023/09/09 02:42:03;;;;;;;2.17;1.48;;;22.10;63.80;;;;;;6233153;28;20037;-67
2023/09/09 02:45:04;;;;;;;1.85;1.50;;;22.10;64.70;;;;;;6225464;28;20049;-67
2023/09/09 02:48:05;;;;;;;1.52;1.42;;;22.10;63.80;;;;;;6218750;28;20499;-67
2023/09/09 02:51:06;;;;;;;1.45;1.35;;;22.10;63.80;;;;;;6219918;28;20033;-67
2023/09/09 02:54:06;;;;;;;1.80;1.50;;;22.10;63.80;;;;;;6233254;28;20324;-68
2023/09/09 02:57:07;;;;;;;1.50;1.25;;;22.10;63.80;;;;;;6231192;28;20025;-68
2023/09/09 03:00:07;;;;;;;2.13;1.58;;;22.10;63.80;;;;;;6224905;28;20045;-67
2023/09/09 03:03:08;;;;;;;2.05;1.55;;;22.00;63.70;;;;;;6218486;28;20451;-67
2023/09/09 03:06:10;;;;;;;1.60;1.40;;;22.10;64.00;;;;;;6221702;28;20025;-67
2023/09/09 03:09:11;;;;;;;1.40;1.30;;;22.10;63.80;;;;;;6232127;28;20065;-67
2023/09/09 03:12:11;;;;;;;1.65;1.40;;;22.10;63.90;;;;;;6229270;28;20029;-67
2023/09/09 03:15:12;;;;;;;1.85;1.65;;;22.10;63.90;;;;;;6224264;28;20097;-67
2023/09/09 03:18:12;;;;;;;2.22;1.55;;;22.10;63.90;;;;;;6237055;28;20086;-67
2023/09/09 03:21:13;;;;;;;2.28;1.67;;;22.00;63.80;;;;;;6223808;28;20029;-67
2023/09/09 03:24:14;;;;;;;1.50;1.40;;;22.10;63.90;;;;;;6217554;28;20060;-67
2023/09/09 03:27:14;;;;;;;1.65;1.38;;;22.10;63.90;;;;;;6227602;28;20652;-67
2023/09/09 03:30:15;;;;;;;1.60;1.30;;;22.10;63.90;;;;;;6231312;28;20054;-68
2023/09/09 03:33:15;;;;;;;1.65;1.40;;;22.10;63.90;;;;;;6218191;28;20026;-67
2023/09/09 03:36:16;;;;;;;1.90;1.70;;;22.10;63.90;;;;;;6217527;28;20030;-67
2023/09/09 03:39:17;;;;;;;3.90;1.60;;;22.10;63.90;;;;;;6239587;28;20072;-68
2023/09/09 03:42:17;;;;;;;1.70;1.40;;;22.10;63.90;;;;;;6218236;28;20242;-67
2023/09/09 03:45:18;;;;;;;1.38;1.27;;;22.10;63.90;;;;;;6217674;28;20026;-67
2023/09/09 03:48:18;;;;;;;1.67;1.50;;;22.10;63.90;;;;;;6233951;28;20461;-66
2023/09/09 03:51:22;;;;;;;1.90;1.50;;;22.10;63.90;;;;;;6222366;28;20022;-67
2023/09/09 03:54:23;;;;;;;2.33;1.50;;;22.10;63.90;;;;;;6241104;28;20017;-67
2023/09/09 03:57:23;;;;;;;1.90;1.45;;;22.10;63.90;;;;;;6228332;28;20120;-67
2023/09/09 04:00:36;;;;;;;1.80;1.48;;;22.10;63.90;;;;;;6238714;28;20030;-67
2023/09/09 04:03:37;;;;;;;1.52;1.40;;;22.10;63.90;;;;;;6218024;28;20405;-67
2023/09/09 04:06:38;;;;;;;1.65;1.50;;;22.10;63.90;;;;;;6218169;28;20030;-67
2023/09/09 04:09:40;;;;;;;1.80;1.38;;;22.10;63.90;;;;;;6241289;28;20072;-67
2023/09/09 04:12:41;;;;;;;1.90;1.65;;;22.10;63.90;;;;;;6219916;28;20045;-67
2023/09/09 04:15:42;;;;;;;1.60;1.48;;;22.10;63.90;;;;;;6217551;28;20037;-67
2023/09/09 04:18:42;;;;;;;1.83;1.40;;;22.10;64.00;;;;;;6232438;28;20030;-67
2023/09/09 04:21:43;;;;;;;2.00;1.50;;;22.10;63.90;;;;;;6227196;28;20080;-67
2023/09/09 04:24:43;;;;;;;2.00;1.80;;;22.10;64.00;;;;;;6218211;28;20049;-67
2023/09/09 04:27:44;;;;;;;2.05;1.60;;;22.10;64.10;;;;;;6222563;28;20033;-67
2023/09/09 04:30:46;;;;;;;2.05;1.80;;;22.10;63.90;;;;;;6242476;28;20141;-67
2023/09/09 04:33:46;;;;;;;1.48;1.25;;;22.10;64.00;;;;;;6218730;28;20029;-67
2023/09/09 04:36:47;;;;;;;1.70;1.50;;;22.10;63.90;;;;;;6217279;28;20085;-67
2023/09/09 04:39:47;;;;;;;2.17;1.80;;;22.00;63.90;;;;;;6237932;28;20042;-67
2023/09/09 04:42:48;;;;;;;1.88;1.63;;;22.10;64.00;;;;;;6231097;28;20018;-67
2023/09/09 04:45:48;;;;;;;2.20;1.80;;;22.10;64.00;;;;;;6222449;28;20029;-67
2023/09/09 04:48:52;;;;;;;1.55;1.40;;;22.10;64.00;;;;;;6233489;28;20021;-67
2023/09/09 04:51:54;;;;;;;1.83;1.70;;;22.10;64.00;;;;;;6232827;28;20076;-67
2023/09/09 04:54:55;;;;;;;2.10;1.55;;;22.10;64.00;;;;;;6241533;28;20029;-67
2023/09/09 04:57:55;;;;;;;1.80;1.50;;;22.10;64.00;;;;;;6228281;28;20030;-66
2023/09/09 05:00:56;;;;;;;1.40;1.27;;;22.10;64.10;;;;;;6244404;28;20032;-67
2023/09/09 05:03:57;;;;;;;1.88;1.50;;;22.10;64.00;;;;;;6224227;28;20022;-67
2023/09/09 05:06:58;;;;;;;1.55;1.45;;;22.10;64.10;;;;;;6245452;28;20510;-67
2023/09/09 05:09:59;;;;;;;1.83;1.52;;;22.10;64.00;;;;;;6221751;28;20030;-68
2023/09/09 05:12:59;;;;;;;2.28;1.70;;;22.10;64.00;;;;;;6222253;28;20050;-68
2023/09/09 05:16:00;;;;;;;1.90;1.60;;;22.00;63.90;;;;;;6243257;28;20037;-67
2023/09/09 05:19:00;;;;;;;1.90;1.63;;;22.10;64.10;;;;;;6229578;28;20033;-67
2023/09/09 05:22:01;;;;;;;1.60;1.50;;;22.00;63.90;;;;;;6246059;28;20030;-67
2023/09/09 05:25:02;;;;;;;1.42;1.33;;;22.10;64.10;;;;;;6244166;28;20029;-67
2023/09/09 05:28:03;;;;;;;2.47;1.50;;;22.10;64.10;;;;;;6245090;28;20072;-67
2023/09/09 05:31:07;;;;;;;1.60;1.50;;;22.10;64.10;;;;;;6221059;28;20030;-67
2023/09/09 05:34:07;;;;;;;1.77;1.50;;;22.10;64.10;;;;;;6228891;28;20033;-67
2023/09/09 05:37:08;;;;;;;1.50;1.40;;;22.10;64.10;;;;;;6245256;28;20029;-67
2023/09/09 05:40:09;;;;;;;2.05;1.77;;;22.10;64.10;;;;;;6226937;28;20034;-68
2023/09/09 05:43:10;;;;;;;1.52;1.35;;;22.10;64.10;;;;;;6221314;28;20018;-67
2023/09/09 05:46:10;;;;;;;1.83;1.38;;;22.10;65.00;;;;;;6243938;28;20134;-67
2023/09/09 05:49:11;;;;;;;2.22;1.90;;;22.10;64.10;;;;;;6238854;28;20033;-67
2023/09/09 05:52:12;;;;;;;1.80;1.33;;;22.10;64.10;;;;;;6203716;28;20074;-67
2023/09/09 05:55:14;;;;;;;2.17;1.60;;;22.10;64.10;;;;;;6212826;28;20028;-67
2023/09/09 05:58:15;;;;;;;1.98;1.60;;;22.10;64.10;;;;;;6220662;28;20042;-67
2023/09/09 06:01:15;;;;;;;2.03;1.52;;;22.10;64.10;;;;;;6222732;28;20040;-68
2023/09/09 06:04:16;;;;;;;2.28;1.70;;;22.10;64.10;;;;;;6220572;28;20033;-68
2023/09/09 06:07:18;;;;;;;1.73;1.35;;;22.10;64.10;;;;;;6220200;28;20033;-67
2023/09/09 06:10:19;;;;;;;1.67;1.38;;;22.10;64.10;;;;;;6220793;28;20113;-66
2023/09/09 06:13:19;;;;;;;1.90;1.48;;;22.10;64.10;;;;;;6220342;28;20522;-67
2023/09/09 06:16:20;;;;;;;1.73;1.50;;;22.10;64.10;;;;;;6220281;28;20130;-67
2023/09/09 06:19:20;;;;;;;1.55;1.35;;;22.10;64.10;;;;;;6219509;28;20038;-68
2023/09/09 06:22:21;;;;;;;2.92;1.77;;;22.10;64.10;;;;;;6219384;28;20108;-68
2023/09/09 06:25:22;;;;;;;1.60;1.50;;;22.10;64.10;;;;;;6226531;28;20527;-67
2023/09/09 06:28:22;;;;;;;2.03;1.60;;;22.10;64.10;;;;;;6220117;28;20053;-67
2023/09/09 06:31:23;;;;;;;1.42;1.30;;;22.10;64.10;;;;;;6217978;28;20417;-67
2023/09/09 06:34:25;;;;;;;1.83;1.52;;;22.10;64.10;;;;;;6221333;28;20476;-67
2023/09/09 06:37:25;;;;;;;2.17;1.50;;;22.10;64.10;;;;;;6223879;28;20033;-68
2023/09/09 06:40:27;;;;;;;2.08;1.67;;;22.10;64.10;;;;;;6219526;28;20030;-67
2023/09/09 06:43:27;;;;;;;1.77;1.60;;;22.10;64.10;;;;;;6219596;28;20042;-67
2023/09/09 06:46:28;;;;;;;2.20;1.67;;;22.10;64.10;;;;;;6223840;28;20040;-67
2023/09/09 06:49:29;;;;;;;1.67;1.27;;;22.10;64.00;;;;;;6219854;28;20022;-67
2023/09/09 06:52:29;;;;;;;1.60;1.40;;;22.10;64.10;;;;;;6213106;28;20026;-67
2023/09/09 06:55:30;;;;;;;1.80;1.52;;;22.10;64.10;;;;;;6226595;28;20076;-68
2023/09/09 06:58:30;;;;;;;1.67;1.50;;;22.10;64.00;;;;;;6218836;28;20040;-68
2023/09/09 07:01:31;;;;;;;1.75;1.63;;;22.10;64.00;;;;;;6229183;28;20412;-68
2023/09/09 07:04:32;;;;;;;1.73;1.40;;;22.10;64.00;;;;;;6218807;28;20034;-67
2023/09/09 07:07:32;;;;;;;1.60;1.38;;;22.10;64.00;;;;;;6219851;28;20025;-67
2023/09/09 07:10:33;;;;;;;2.63;1.80;;;22.10;64.10;;;;;;6224729;28;20087;-66
2023/09/09 07:13:34;;;;;;;1.90;1.60;;;22.10;64.10;;;;;;6221142;28;20133;-67
2023/09/09 07:16:35;;;;;;;1.70;1.60;;;22.10;64.00;;;;;;6218799;28;20088;-67
2023/09/09 07:19:36;;;;;;;1.90;1.60;;;22.10;64.10;;;;;;6218813;28;20030;-67
2023/09/09 07:22:37;;;;;;;1.48;1.35;;;22.00;63.90;;;;;;6226340;28;20084;-67
2023/09/09 07:25:37;;;;;;;2.75;1.52;;;22.10;64.00;;;;;;6218455;28;20049;-67
2023/09/09 07:28:38;;;;;;;1.27;1.17;;;22.10;64.00;;;;;;6218887;28;20566;-67
2023/09/09 07:31:38;;;;;;;1.73;1.50;;;22.10;64.10;;;;;;6230725;28;20038;-67
2023/09/09 07:34:39;;;;;;;1.98;1.70;;;22.10;64.00;;;;;;6220289;28;20055;-68
2023/09/09 07:37:39;;;;;;;2.17;1.67;;;22.10;64.00;;;;;;6218354;28;20120;-67
2023/09/09 07:40:40;;;;;;;1.58;1.40;;;22.10;64.00;;;;;;6221030;28;20554;-67
2023/09/09 07:43:41;;;;;;;1.67;1.40;;;22.10;64.00;;;;;;6228165;28;20018;-67
2023/09/09 07:46:41;;;;;;;2.25;1.60;;;22.10;64.10;;;;;;6217992;28;20444;-68
2023/09/09 07:49:42;;;;;;;2.42;1.60;;;22.10;64.10;;;;;;6218256;28;20037;-67
2023/09/09 07:52:42;;;;;;;2.08;1.88;;;22.10;64.10;;;;;;6227104;28;20034;-67
2023/09/09 07:55:43;;;;;;;2.47;1.83;;;22.10;64.10;;;;;;6219579;28;20535;-67
2023/09/09 07:58:43;;;;;;;2.38;1.58;;;22.00;64.00;;;;;;6227558;28;20034;-67
2023/09/09 08:01:44;;;;;;;2.08;1.58;;;22.10;64.10;;;;;;6217898;28;20100;-67
2023/09/09 08:04:45;;;;;;;1.70;1.50;;;22.10;64.10;;;;;;6218128;28;20029;-68
2023/09/09 08:07:46;;;;;;;1.90;1.40;;;22.10;64.10;;;;;;6218066;28;20029;-67
2023/09/09 08:10:48;;;;;;;1.85;1.40;;;22.10;64.10;;;;;;6217766;28;20262;-67
2023/09/09 08:13:49;;;;;;;2.25;1.70;;;22.10;64.10;;;;;;6200264;28;20046;-68
2023/09/09 08:16:50;;;;;;;1.90;1.60;;;22.10;64.10;;;;;;6228819;28;20044;-68
2023/09/09 08:19:50;;;;;;;2.15;1.75;;;22.10;64.10;;;;;;6231402;28;20132;-67
2023/09/09 08:22:51;;;;;;;1.77;1.40;;;22.00;64.10;;;;;;6238081;28;20044;-67
2023/09/09 08:25:52;;;;;;;2.00;1.40;;;22.10;64.10;;;;;;6223396;28;20258;-67
2023/09/09 08:28:52;;;;;;;2.00;1.75;;;22.10;64.10;;;;;;6222541;28;20026;-67
2023/09/09 08:31:53;;;;;;;1.73;1.40;;;22.10;64.10;;;;;;6228050;28;20519;-67
2023/09/09 08:34:54;;;;;;;1.92;1.73;;;22.10;64.10;;;;;;6238408;28;20025;-68
2023/09/09 08:37:55;;;;;;;1.70;1.50;;;22.10;64.10;;;;;;6222545;28;20049;-67
2023/09/09 08:41:03;;;;;;;1.60;1.45;;;22.10;64.10;;;;;;6222272;28;20108;-67
2023/09/09 08:44:22;;;;;;;1.63;1.40;;;22.10;64.10;;;;;;6243378;28;20087;-67
2023/09/09 08:47:23;;;;;;;2.65;1.58;;;22.10;64.20;;;;;;6222092;28;20160;-68
2023/09/09 08:50:29;;;;;;;1.73;1.35;;;22.10;64.10;;;;;;6220351;28;20026;-68
2023/09/09 08:53:31;;;;;;;1.38;1.27;;;22.10;64.10;;;;;;6230712;28;20017;-67
2023/09/09 08:56:32;;;;;;;1.88;1.30;;;22.10;64.10;;;;;;6224753;28;20068;-68
2023/09/09 08:59:34;;;;;;;1.70;1.50;;;22.10;64.10;;;;;;6240722;28;20440;-67
2023/09/09 09:02:35;;;;;;;2.08;1.60;;;22.10;64.10;;;;;;6221444;28;20028;-67
2023/09/09 09:05:38;;;;;;;1.70;1.42;;;22.10;64.10;;;;;;6221549;28;20114;-67
2023/09/09 09:08:38;;;;;;;1.60;1.35;;;22.00;64.00;;;;;;6237211;28;20071;-67
2023/09/09 09:11:39;;;;;;;1.83;1.60;;;22.10;64.20;;;;;;6231655;28;20022;-67
2023/09/09 09:14:48;;;;;;;1.75;1.50;;;22.10;64.20;;;;;;6221120;28;20444;-68
2023/09/09 09:17:49;;;;;;;1.63;1.23;;;22.10;64.10;;;;;;6228929;28;20029;-67
2023/09/09 09:20:51;;;;;;;1.83;1.38;;;22.10;64.10;;;;;;6238598;28;20040;-67
2023/09/09 09:23:52;;;;;;;1.48;1.30;;;22.10;64.10;;;;;;6221531;28;20026;-68
2023/09/09 09:26:54;;;;;;;1.38;1.27;;;22.10;64.10;;;;;;6220336;28;20084;-68
2023/09/09 09:29:55;;;;;;;1.40;1.25;;;22.00;64.00;;;;;;6244391;28;20384;-67
2023/09/09 09:32:56;;;;;;;1.50;1.30;;;22.10;64.10;;;;;;6220784;28;20018;-67
2023/09/09 09:35:59;;;;;;;1.85;1.50;;;22.10;64.10;;;;;;6220707;28;20037;-67
2023/09/09 09:39:10;;;;;;;1.85;1.50;;;22.00;64.10;;;;;;6235056;28;20499;-67
2023/09/09 09:42:12;;;;;;;1.40;1.20;;;22.00;64.10;;;;;;6235497;28;20030;-68
2023/09/09 09:45:13;;;;;;;1.33;1.20;;;22.00;64.10;;;;;;6220522;28;20546;-67
2023/09/09 09:48:27;;;;;;;2.08;1.50;;;22.10;64.20;;;;;;6227093;28;20419;-67
2023/09/09 09:51:43;;;;;;;1.63;1.30;;;22.10;64.20;;;;;;6234633;28;20072;-67
2023/09/09 09:54:50;;;;;;;1.30;1.20;;;22.10;64.20;;;;;;6239368;28;20034;-68
2023/09/09 09:57:55;;;;;;;1.33;1.23;;;22.10;64.20;;;;;;6227272;28;20034;-67
2023/09/09 10:00:58;;;;;;;1.33;1.13;;;22.10;64.20;;;;;;6244926;28;20551;-67
2023/09/09 10:04:05;;;;;;;1.65;1.30;;;22.10;64.20;;;;;;6220067;28;20030;-67
2023/09/09 10:07:16;;;;;;;1.90;1.33;;;22.10;64.20;;;;;;6220551;28;20076;-67
2023/09/09 10:10:19;;;;;;;1.52;1.38;;;22.10;64.20;;;;;;6240964;28;20021;-68
2023/09/09 10:13:30;;;;;;;1.45;1.27;;;22.10;64.20;;;;;;6224475;28;20088;-68
2023/09/09 10:16:32;;;;;;;1.75;1.35;;;22.10;64.20;;;;;;6219988;28;20036;-67
2023/09/09 10:19:36;;;;;;;1.80;1.30;;;22.10;64.20;;;;;;6233426;28;20491;-67
2023/09/09 10:22:38;;;;;;;1.30;1.20;;;22.10;64.20;;;;;;6238748;28;20026;-67
2023/09/09 10:25:39;;;;;;;1.27;1.13;;;22.10;64.20;;;;;;6220040;28;20023;-68
2023/09/09 10:28:41;;;;;;;1.30;1.20;;;22.10;64.20;;;;;;6224305;28;20055;-68
2023/09/09 10:31:44;;;;;;;1.50;1.30;;;22.10;64.20;;;;;;6244242;28;20144;-68
2023/09/09 10:34:46;;;;;;;1.70;1.30;;;22.10;64.20;;;;;;6220493;28;20496;-66
2023/09/09 10:37:50;;;;;;;1.48;1.30;;;22.10;64.20;;;;;;6219477;28;20068;-66
2023/09/09 10:40:50;;;;;;;1.58;1.38;;;22.10;64.20;;;;;;6240676;28;20345;-66
2023/09/09 10:43:51;;;;;;;2.17;1.20;;;22.10;64.20;;;;;;6235957;28;20061;-67
2023/09/09 10:46:56;;;;;;;1.67;1.30;;;22.10;64.20;;;;;;6219740;28;20694;-68
2023/09/09 10:50:04;;;;;;;1.13;1.02;;;22.10;64.20;;;;;;6231526;28;20020;-68
2023/09/09 10:53:15;;;;;;;1.20;1.10;;;22.10;64.20;;;;;;6219784;28;20366;-68
2023/09/09 10:56:16;;;;;;;1.23;1.08;;;22.10;64.20;;;;;;6234990;28;20021;-67
2023/09/09 10:59:19;;;;;;;1.40;1.02;;;22.10;64.20;;;;;;6224568;28;20026;-67
2023/09/09 11:02:24;;;;;;;1.55;1.20;;;22.10;64.20;;;;;;6243549;28;20064;-68
2023/09/09 11:05:25;;;;;;;1.67;1.42;;;22.10;64.20;;;;;;6223015;28;20030;-67
2023/09/09 11:08:30;;;;;;;1.20;1.10;;;22.10;64.20;;;;;;6218552;28;20088;-67
2023/09/09 11:11:37;;;;;;;1.95;1.45;;;22.10;64.20;;;;;;6241903;28;20021;-68
2023/09/09 11:14:47;;;;;;;2.00;1.50;;;22.10;64.20;;;;;;6228388;28;20052;-67
2023/09/09 11:17:48;;;;;;;1.63;1.40;;;22.10;64.30;;;;;;6218753;28;20504;-67
2023/09/09 11:20:51;;;;;;;1.58;1.30;;;22.10;64.20;;;;;;6218415;28;20077;-67
2023/09/09 11:23:52;;;;;;;1.30;1.00;;;22.10;64.20;;;;;;6218607;28;20057;-67
2023/09/09 11:26:55;;;;;;;1.55;1.20;;;22.10;64.20;;;;;;6218955;28;20510;-68
2023/09/09 11:29:56;;;;;;;1.85;1.40;;;22.10;64.20;;;;;;6225414;28;20422;-67
2023/09/09 11:32:56;;;;;;;1.33;1.23;;;22.10;64.20;;;;;;6243238;28;20025;-67
2023/09/09 11:35:57;;;;;;;1.27;1.17;;;22.10;64.20;;;;;;6225866;28;20026;-67
2023/09/09 11:38:59;;;;;;;1.55;1.30;;;22.10;65.10;;;;;;6218213;28;20040;-67
2023/09/09 11:42:02;;;;;;;1.85;1.40;;;22.10;64.20;;;;;;6240453;28;20025;-68
2023/09/09 11:45:16;;;;;;;1.20;1.00;;;22.10;64.20;;;;;;6233308;28;20153;-67
2023/09/09 11:48:16;;;;;;;1.40;1.30;;;22.10;64.20;;;;;;6218339;28;20026;-68
2023/09/09 11:51:18;;;;;;;1.48;1.33;;;22.10;64.20;;;;;;6223886;28;20018;-67
2023/09/09 11:54:20;;;;;;;1.65;1.20;;;22.10;64.30;;;;;;6218675;28;20026;-67
2023/09/09 11:57:20;;;;;;;1.48;1.25;;;22.10;64.30;;;;;;6221654;28;20070;-67
2023/09/09 12:00:22;;;;;;;1.30;1.05;;;22.10;64.30;;;;;;6219915;28;20033;-68
2023/09/09 12:03:23;;;;;;;1.33;1.20;;;22.10;64.30;;;;;;6218367;28;20060;-67
2023/09/09 12:06:23;;;;;;;1.58;1.20;;;22.10;64.30;;;;;;6217613;28;20112;-68
2023/09/09 12:09:24;;;;;;;1.52;1.17;;;22.10;64.30;;;;;;6218347;28;20026;-67
2023/09/09 12:12:25;;;;;;;1.33;1.17;;;22.10;64.30;;;;;;6218771;28;20082;-67
2023/09/09 12:15:27;;;;;;;1.25;1.05;;;22.10;64.30;;;;;;6217600;28;20026;-67
2023/09/09 12:18:27;;;;;;;1.23;1.10;;;22.10;64.30;;;;;;6217061;28;20037;-67
2023/09/09 12:21:29;;;;;;;1.90;1.35;;;22.10;64.30;;;;;;6217606;28;20101;-67
2023/09/09 12:24:40;;;;;;;1.17;1.08;;;22.10;64.30;;;;;;6218016;28;20519;-68
2023/09/09 12:27:43;;;;;;;1.60;1.30;;;22.10;64.30;;;;;;6224673;28;20030;-67
2023/09/09 12:30:43;;;;;;;1.10;1.00;;;22.10;64.30;;;;;;6217843;28;20505;-67
2023/09/09 12:33:47;;;;;;;1.10;1.00;;;22.00;64.20;;;;;;6217644;28;20022;-67
2023/09/09 12:36:48;;;;;;;1.17;1.08;;;22.10;64.30;;;;;;6223654;28;20084;-67
2023/09/09 12:39:59;;;;;;;1.20;1.10;;;22.10;64.30;;;;;;6217705;28;20066;-67
2023/09/09 12:43:09;;;;;;;0.95;0.85;;;22.10;64.30;;;;;;6217498;28;20018;-67
2023/09/09 12:46:18;;;;;;;1.20;1.10;;;22.00;64.20;;;;;;6222168;28;20022;-67
2023/09/09 12:49:19;;;;;;;1.13;1.02;;;22.10;64.30;;;;;;6217265;28;20042;-68
2023/09/09 12:52:20;;;;;;;1.30;1.02;;;22.10;64.30;;;;;;6229495;28;20025;-68
2023/09/09 12:55:21;;;;;;;1.27;1.00;;;22.10;64.30;;;;;;6217476;28;20049;-67
2023/09/09 12:58:21;;;;;;;2.13;1.40;;;22.10;64.30;;;;;;6229145;28;20105;-67
2023/09/09 13:01:22;;;;;;;1.30;1.20;;;22.10;64.40;;;;;;6217000;28;20074;-67
2023/09/09 13:04:24;;;;;;;1.30;1.20;;;22.10;64.30;;;;;;6220690;28;20025;-67
2023/09/09 13:07:25;;;;;;;1.10;1.00;;;22.10;64.30;;;;;;6231625;28;20431;-68
2023/09/09 13:10:25;;;;;;;2.08;1.35;;;22.10;64.30;;;;;;6235289;28;20077;-68
2023/09/09 13:13:26;;;;;;;1.10;1.00;;;22.10;64.40;;;;;;6223848;28;20050;-67
2023/09/09 13:16:27;;;;;;;1.17;1.00;;;22.10;64.30;;;;;;6226256;28;20025;-67
2023/09/09 13:19:27;;;;;;;1.10;1.00;;;22.00;64.20;;;;;;6224923;28;20612;-67
2023/09/09 13:22:28;;;;;;;0.90;0.90;;;22.10;64.30;;;;;;6230392;28;20025;-68
2023/09/09 13:25:29;;;;;;;1.00;0.90;;;22.10;64.30;;;;;;6220635;28;20029;-67
2023/09/09 13:28:30;;;;;;;1.30;1.20;;;22.10;64.30;;;;;;6236823;28;20405;-68
2023/09/09 13:31:30;;;;;;;1.10;1.00;;;22.10;64.30;;;;;;6228490;28;20026;-67
2023/09/09 13:34:31;;;;;;;1.30;1.20;;;22.10;64.40;;;;;;6220506;28;20541;-67
2023/09/09 13:37:32;;;;;;;1.30;1.05;;;22.10;64.30;;;;;;6231856;28;20037;-67
2023/09/09 13:40:33;;;;;;;1.40;1.00;;;22.10;64.30;;;;;;6223781;28;20103;-68
2023/09/09 13:43:34;;;;;;;1.23;1.02;;;22.10;64.30;;;;;;6220379;28;20024;-67
2023/09/09 13:46:34;;;;;;;0.98;0.88;;;22.10;64.30;;;;;;6222543;28;20014;-67
2023/09/09 13:49:35;;;;;;;1.00;0.93;;;22.10;64.30;;;;;;6231487;28;20506;-67
2023/09/09 13:52:36;;;;;;;0.98;0.90;;;22.10;64.40;;;;;;6230171;28;20021;-67
2023/09/09 13:55:37;;;;;;;1.20;1.08;;;22.10;64.40;;;;;;6231260;28;20118;-67
2023/09/09 13:58:37;;;;;;;0.80;0.80;;;22.10;64.40;;;;;;6238101;28;20032;-67
2023/09/09 14:01:38;;;;;;;1.38;1.02;;;22.10;64.40;;;;;;6222680;28;20032;-67
2023/09/09 14:04:38;;;;;;;1.05;0.95;;;22.00;64.30;;;;;;6220413;28;20405;-68
2023/09/09 14:07:40;;;;;;;1.02;0.93;;;22.00;64.30;;;;;;6228233;28;20104;-68
2023/09/09 14:10:41;;;;;;;1.38;1.08;;;22.00;64.30;;;;;;6230200;28;20627;-67
2023/09/09 14:13:42;;;;;;;1.13;1.00;;;22.10;65.30;;;;;;6219549;28;20054;-68
2023/09/09 14:16:42;;;;;;;1.00;0.90;;;22.10;64.40;;;;;;6219972;28;20069;-67
2023/09/09 14:19:43;;;;;;;0.85;0.82;;;22.00;64.30;;;;;;6236794;28;20025;-68
2023/09/09 14:22:44;;;;;;;0.80;0.80;;;22.10;64.40;;;;;;6219976;28;20030;-67
2023/09/09 14:25:44;;;;;;;1.20;1.00;;;22.10;64.40;;;;;;6219896;28;20214;-67
2023/09/09 14:28:45;;;;;;;0.82;0.82;;;22.10;64.40;;;;;;6234125;28;20104;-67
2023/09/09 14:31:46;;;;;;;1.00;0.90;;;22.10;64.40;;;;;;6227837;28;20048;-67
2023/09/09 14:34:47;;;;;;;1.17;0.90;;;22.10;64.40;;;;;;6219976;28;20026;-67
2023/09/09 14:37:47;;;;;;;1.05;0.90;;;22.10;64.40;;;;;;6224529;28;20038;-67
2023/09/09 14:40:48;;;;;;;1.00;0.90;;;22.00;64.30;;;;;;6236561;28;20036;-67
2023/09/09 14:43:49;;;;;;;1.10;0.98;;;22.10;64.50;;;;;;6229356;28;20550;-68
2023/09/09 14:46:49;;;;;;;0.90;0.73;;;22.10;64.40;;;;;;6219176;28;20049;-67
2023/09/09 14:49:50;;;;;;;1.60;1.08;;;22.10;64.40;;;;;;6239775;28;20025;-66
2023/09/09 14:52:50;;;;;;;1.00;0.90;;;22.10;64.40;;;;;;6224942;28;20017;-67
2023/09/09 14:55:51;;;;;;;1.38;1.13;;;22.10;64.40;;;;;;6240729;28;20083;-68
2023/09/09 14:58:52;;;;;;;1.08;0.98;;;22.10;64.40;;;;;;6230210;28;20476;-67
2023/09/09 15:01:52;;;;;;;0.90;0.80;;;22.10;64.40;;;;;;6235627;28;20590;-67
2023/09/09 15:04:53;;;;;;;1.30;1.20;;;22.10;64.40;;;;;;6219348;28;20520;-67
2023/09/09 15:07:53;;;;;;;0.90;0.90;;;22.00;64.30;;;;;;6220330;28;20030;-67
2023/09/09 15:10:54;;;;;;;1.00;0.80;;;22.10;64.50;;;;;;6243524;28;20025;-67
2023/09/09 15:13:54;;;;;;;1.05;0.93;;;22.10;64.40;;;;;;6218678;28;20050;-67
2023/09/09 15:16:56;;;;;;;1.20;1.05;;;22.00;64.30;;;;;;6218629;28;20099;-67
2023/09/09 15:19:57;;;;;;;0.90;0.88;;;22.10;64.40;;;;;;6235785;28;20084;-67
2023/09/09 15:22:57;;;;;;;1.15;1.00;;;22.10;64.50;;;;;;6225834;28;20034;-67
2023/09/09 15:25:58;;;;;;;0.88;0.88;;;22.00;64.30;;;;;;6217797;28;20022;-68
2023/09/09 15:28:59;;;;;;;1.10;1.00;;;22.10;64.40;;;;;;6226010;28;20143;-68
2023/09/09 15:31:59;;;;;;;1.85;0.80;;;22.10;64.40;;;;;;6242746;28;20033;-67
2023/09/09 15:35:00;;;;;;;0.80;0.80;;;22.00;64.40;;;;;;6218477;28;20068;-67
2023/09/09 15:38:01;;;;;;;0.80;0.80;;;22.10;64.50;;;;;;6218216;28;20061;-67
2023/09/09 15:41:04;;;;;;;1.00;0.90;;;22.10;64.50;;;;;;6241384;28;20042;-67
2023/09/09 15:44:05;;;;;;;1.30;1.00;;;22.00;64.30;;;;;;6224908;28;20093;-67
2023/09/09 15:47:05;;;;;;;1.10;0.90;;;22.10;64.50;;;;;;6218169;28;20029;-67